sensor_id;sensor_type;location;lat;lon;timestamp;pressure;altitude;pressure_sealevel;temperature;humidity
25232;BME280;13176;51.140;6.290;2023-06-22T00:00:43;100979.81;;;26.00;46.68
25232;BME280;13176;51.140;6.290;2023-06-22T00:03:11;101031.69;;;26.22;46.93
25232;BME280;13176;51.140;6.290;2023-06-22T00:05:37;100940.94;;;25.58;46.88
25232;BME280;13176;51.140;6.290;2023-06-22T00:08:04;101103.25;;;26.56;46.70
25232;BME280;13176;51.140;6.290;2023-06-22T00:10:31;101064.72;;;26.34;46.87
25232;BME280;13176;51.140;6.290;2023-06-22T00:13:00;101015.34;;;26.02;47.01
25232;BME280;13176;51.140;6.290;2023-06-22T00:15:30;101109.88;;;26.63;47.00
25232;BME280;13176;51.140;6.290;2023-06-22T00:17:56;100979.53;;;25.92;46.93
25232;BME280;13176;51.140;6.290;2023-06-22T00:20:33;100908.66;;;25.37;47.42
25232;BME280;13176;51.140;6.290;2023-06-22T00:23:04;100914.75;;;25.39;47.30
25232;BME280;13176;51.140;6.290;2023-06-22T00:25:35;101033.75;;;26.19;46.99
25232;BME280;13176;51.140;6.290;2023-06-22T00:28:02;101059.53;;;26.20;47.61
25232;BME280;13176;51.140;6.290;2023-06-22T00:30:30;101034.75;;;25.93;48.22
25232;BME280;13176;51.140;6.290;2023-06-22T00:33:09;101009.63;;;25.83;48.21
25232;BME280;13176;51.140;6.290;2023-06-22T00:35:36;101114.13;;;26.30;48.78
25232;BME280;13176;51.140;6.290;2023-06-22T00:38:03;100951.78;;;25.32;48.88
25232;BME280;13176;51.140;6.290;2023-06-22T00:40:34;101100.09;;;26.26;48.80
25232;BME280;13176;51.140;6.290;2023-06-22T00:43:01;101008.22;;;25.65;49.66
25232;BME280;13176;51.140;6.290;2023-06-22T00:45:35;100902.03;;;25.05;49.49
25232;BME280;13176;51.140;6.290;2023-06-22T00:48:02;101088.16;;;26.07;49.57
25232;BME280;13176;51.140;6.290;2023-06-22T00:50:32;100890.72;;;24.89;50.38
25232;BME280;13176;51.140;6.290;2023-06-22T00:53:05;100881.09;;;24.86;50.28
25232;BME280;13176;51.140;6.290;2023-06-22T00:55:45;101037.22;;;25.71;50.38
25232;BME280;13176;51.140;6.290;2023-06-22T00:58:14;100975.97;;;25.31;50.87
25232;BME280;13176;51.140;6.290;2023-06-22T01:00:41;100971.56;;;25.30;50.68
25232;BME280;13176;51.140;6.290;2023-06-22T01:03:09;101032.28;;;25.65;50.95
25232;BME280;13176;51.140;6.290;2023-06-22T01:05:39;101000.22;;;25.40;51.65
25232;BME280;13176;51.140;6.290;2023-06-22T01:11:25;101082.91;;;25.93;51.80
25232;BME280;13176;51.140;6.290;2023-06-22T01:16:10;100964.41;;;25.30;52.15
25232;BME280;13176;51.140;6.290;2023-06-22T01:18:42;101011.97;;;25.38;52.76
25232;BME280;13176;51.140;6.290;2023-06-22T01:21:12;100959.06;;;25.18;53.07
25232;BME280;13176;51.140;6.290;2023-06-22T01:26:35;100970.28;;;25.23;53.05
25232;BME280;13176;51.140;6.290;2023-06-22T01:29:10;100853.88;;;24.42;53.40
25232;BME280;13176;51.140;6.290;2023-06-22T01:31:41;100864.72;;;24.53;53.71
25232;BME280;13176;51.140;6.290;2023-06-22T01:34:09;100874.88;;;24.61;53.35
25232;BME280;13176;51.140;6.290;2023-06-22T01:36:39;100867.41;;;24.53;53.33
25232;BME280;13176;51.140;6.290;2023-06-22T01:39:07;100974.13;;;25.31;53.37
25232;BME280;13176;51.140;6.290;2023-06-22T01:41:38;100884.94;;;24.82;53.24
25232;BME280;13176;51.140;6.290;2023-06-22T01:44:14;100873.81;;;24.63;53.37
25232;BME280;13176;51.140;6.290;2023-06-22T01:46:41;101011.75;;;25.53;53.66
25232;BME280;13176;51.140;6.290;2023-06-22T01:49:11;100934.75;;;25.08;53.08
25232;BME280;13176;51.140;6.290;2023-06-22T01:51:38;100982.78;;;25.47;53.86
25232;BME280;13176;51.140;6.290;2023-06-22T01:54:09;101027.13;;;25.74;53.13
25232;BME280;13176;51.140;6.290;2023-06-22T01:56:38;100954.84;;;25.51;52.70
25232;BME280;13176;51.140;6.290;2023-06-22T01:59:28;100871.06;;;25.02;52.51
25232;BME280;13176;51.140;6.290;2023-06-22T02:02:05;100869.34;;;25.01;52.49
25232;BME280;13176;51.140;6.290;2023-06-22T02:04:57;100893.09;;;25.18;52.99
25232;BME280;13176;51.140;6.290;2023-06-22T02:07:33;100937.53;;;25.56;53.02
25232;BME280;13176;51.140;6.290;2023-06-22T02:10:02;100989.28;;;25.80;53.08
25232;BME280;13176;51.140;6.290;2023-06-22T02:12:29;100867.13;;;24.83;54.26
25232;BME280;13176;51.140;6.290;2023-06-22T02:14:58;100856.97;;;24.75;53.93
25232;BME280;13176;51.140;6.290;2023-06-22T02:17:31;100930.50;;;25.18;54.10
25232;BME280;13176;51.140;6.290;2023-06-22T02:20:04;100842.88;;;24.73;54.53
25232;BME280;13176;51.140;6.290;2023-06-22T02:22:46;100940.44;;;25.16;54.96
25232;BME280;13176;51.140;6.290;2023-06-22T02:25:13;100844.03;;;24.57;54.89
25232;BME280;13176;51.140;6.290;2023-06-22T02:27:41;100932.38;;;24.91;55.72
25232;BME280;13176;51.140;6.290;2023-06-22T02:30:08;100965.31;;;25.04;56.50
25232;BME280;13176;51.140;6.290;2023-06-22T02:32:38;100961.69;;;25.05;56.20
25232;BME280;13176;51.140;6.290;2023-06-22T02:35:10;101031.88;;;25.46;56.45
25232;BME280;13176;51.140;6.290;2023-06-22T02:37:37;100989.59;;;25.14;56.80
25232;BME280;13176;51.140;6.290;2023-06-22T02:40:08;101050.69;;;25.32;57.07
25232;BME280;13176;51.140;6.290;2023-06-22T02:42:41;100841.25;;;24.20;57.04
25232;BME280;13176;51.140;6.290;2023-06-22T02:45:08;100886.16;;;24.39;57.02
25232;BME280;13176;51.140;6.290;2023-06-22T02:47:36;101002.94;;;25.01;57.52
25232;BME280;13176;51.140;6.290;2023-06-22T02:50:05;100971.91;;;24.99;57.39
25232;BME280;13176;51.140;6.290;2023-06-22T02:52:44;100945.00;;;24.89;57.30
25232;BME280;13176;51.140;6.290;2023-06-22T02:55:16;100893.06;;;24.68;57.38
25232;BME280;13176;51.140;6.290;2023-06-22T02:57:43;100958.06;;;25.06;57.64
25232;BME280;13176;51.140;6.290;2023-06-22T03:00:14;100864.88;;;24.64;56.65
25232;BME280;13176;51.140;6.290;2023-06-22T03:02:45;100934.97;;;25.05;56.70
25232;BME280;13176;51.140;6.290;2023-06-22T03:05:13;100948.63;;;25.13;56.29
25232;BME280;13176;51.140;6.290;2023-06-22T03:07:42;101013.25;;;25.57;56.31
25232;BME280;13176;51.140;6.290;2023-06-22T03:10:10;100799.47;;;24.32;56.08
25232;BME280;13176;51.140;6.290;2023-06-22T03:12:38;100886.44;;;24.86;56.17
25232;BME280;13176;51.140;6.290;2023-06-22T03:15:06;101012.41;;;25.44;57.16
25232;BME280;13176;51.140;6.290;2023-06-22T03:17:34;100977.75;;;25.30;56.79
25232;BME280;13176;51.140;6.290;2023-06-22T03:20:03;100951.03;;;25.18;56.51
25232;BME280;13176;51.140;6.290;2023-06-22T03:22:40;100942.56;;;25.11;57.38
25232;BME280;13176;51.140;6.290;2023-06-22T03:25:08;100777.63;;;24.01;58.23
25232;BME280;13176;51.140;6.290;2023-06-22T03:27:40;100846.53;;;24.33;58.08
25232;BME280;13176;51.140;6.290;2023-06-22T03:30:18;100847.06;;;24.38;58.42
25232;BME280;13176;51.140;6.290;2023-06-22T03:32:44;100770.88;;;23.83;58.66
25232;BME280;13176;51.140;6.290;2023-06-22T03:35:13;100845.38;;;24.37;58.63
25232;BME280;13176;51.140;6.290;2023-06-22T03:37:40;100970.78;;;25.15;58.42
25232;BME280;13176;51.140;6.290;2023-06-22T03:40:07;100936.00;;;24.90;58.41
25232;BME280;13176;51.140;6.290;2023-06-22T03:42:34;100872.94;;;24.50;59.08
25232;BME280;13176;51.140;6.290;2023-06-22T03:45:03;100977.72;;;25.05;59.11
25232;BME280;13176;51.140;6.290;2023-06-22T03:47:30;100800.03;;;23.99;59.12
25232;BME280;13176;51.140;6.290;2023-06-22T03:49:56;100754.47;;;23.63;59.06
25232;BME280;13176;51.140;6.290;2023-06-22T03:52:26;100863.41;;;24.46;58.95
25232;BME280;13176;51.140;6.290;2023-06-22T03:54:55;100894.31;;;24.50;59.08
25232;BME280;13176;51.140;6.290;2023-06-22T03:57:22;100923.63;;;24.89;58.58
25232;BME280;13176;51.140;6.290;2023-06-22T03:59:49;100766.13;;;24.01;58.29
25232;BME280;13176;51.140;6.290;2023-06-22T04:02:19;100898.19;;;24.84;58.20
25232;BME280;13176;51.140;6.290;2023-06-22T04:04:46;100933.25;;;25.04;58.32
25232;BME280;13176;51.140;6.290;2023-06-22T04:07:12;100921.69;;;24.91;58.50
25232;BME280;13176;51.140;6.290;2023-06-22T04:09:41;100781.06;;;24.16;58.92
25232;BME280;13176;51.140;6.290;2023-06-22T04:12:07;100977.94;;;25.02;60.04
25232;BME280;13176;51.140;6.290;2023-06-22T04:14:38;100789.53;;;23.83;60.65
25232;BME280;13176;51.140;6.290;2023-06-22T04:17:05;100857.63;;;24.27;60.66
25232;BME280;13176;51.140;6.290;2023-06-22T04:19:32;100761.50;;;23.64;61.07
25232;BME280;13176;51.140;6.290;2023-06-22T04:22:08;100709.41;;;23.46;61.21
25232;BME280;13176;51.140;6.290;2023-06-22T04:24:36;100826.56;;;24.27;61.01
25232;BME280;13176;51.140;6.290;2023-06-22T04:27:05;100853.88;;;24.42;60.46
25232;BME280;13176;51.140;6.290;2023-06-22T04:29:40;100751.53;;;23.80;60.67
25232;BME280;13176;51.140;6.290;2023-06-22T04:32:28;100761.41;;;23.92;60.57
25232;BME280;13176;51.140;6.290;2023-06-22T04:34:57;100877.47;;;24.62;60.05
25232;BME280;13176;51.140;6.290;2023-06-22T04:37:26;100889.72;;;24.65;60.24
25232;BME280;13176;51.140;6.290;2023-06-22T04:39:53;100862.06;;;24.53;59.86
25232;BME280;13176;51.140;6.290;2023-06-22T04:42:19;100965.97;;;25.20;59.44
25232;BME280;13176;51.140;6.290;2023-06-22T04:44:47;100940.75;;;25.24;59.28
25232;BME280;13176;51.140;6.290;2023-06-22T04:47:14;100827.56;;;24.50;59.20
25232;BME280;13176;51.140;6.290;2023-06-22T04:49:41;100830.69;;;24.69;58.47
25232;BME280;13176;51.140;6.290;2023-06-22T04:52:11;100924.72;;;25.24;58.67
25232;BME280;13176;51.140;6.290;2023-06-22T04:54:41;100853.44;;;24.87;58.63
25232;BME280;13176;51.140;6.290;2023-06-22T04:57:14;100853.22;;;24.90;58.64
25232;BME280;13176;51.140;6.290;2023-06-22T04:59:42;100773.44;;;24.48;58.14
25232;BME280;13176;51.140;6.290;2023-06-22T05:02:09;100928.09;;;25.51;58.04
25232;BME280;13176;51.140;6.290;2023-06-22T05:04:35;100949.06;;;25.57;58.24
25232;BME280;13176;51.140;6.290;2023-06-22T05:07:07;100909.44;;;25.26;58.53
25232;BME280;13176;51.140;6.290;2023-06-22T05:09:36;100792.56;;;24.67;58.47
25232;BME280;13176;51.140;6.290;2023-06-22T05:12:03;100903.25;;;25.26;58.29
25232;BME280;13176;51.140;6.290;2023-06-22T05:14:32;100883.34;;;25.17;58.36
25232;BME280;13176;51.140;6.290;2023-06-22T05:16:59;100896.06;;;25.26;58.64
25232;BME280;13176;51.140;6.290;2023-06-22T05:19:30;100760.09;;;24.48;58.66
25232;BME280;13176;51.140;6.290;2023-06-22T05:22:01;100901.00;;;25.32;58.80
25232;BME280;13176;51.140;6.290;2023-06-22T05:24:28;100951.66;;;25.58;58.41
25232;BME280;13176;51.140;6.290;2023-06-22T05:26:57;100783.91;;;24.51;58.47
25232;BME280;13176;51.140;6.290;2023-06-22T05:29:29;100917.25;;;25.29;58.84
25232;BME280;13176;51.140;6.290;2023-06-22T05:31:56;100856.53;;;24.94;58.60
25232;BME280;13176;51.140;6.290;2023-06-22T05:34:22;100844.59;;;24.74;59.05
25232;BME280;13176;51.140;6.290;2023-06-22T05:36:51;100829.81;;;24.56;59.52
25232;BME280;13176;51.140;6.290;2023-06-22T05:39:18;100822.03;;;24.53;58.82
25232;BME280;13176;51.140;6.290;2023-06-22T05:41:52;100907.19;;;25.20;58.62
25232;BME280;13176;51.140;6.290;2023-06-22T05:44:20;100934.66;;;25.35;58.60
25232;BME280;13176;51.140;6.290;2023-06-22T05:46:46;100792.44;;;24.56;58.41
25232;BME280;13176;51.140;6.290;2023-06-22T05:49:14;100971.97;;;25.61;58.69
25232;BME280;13176;51.140;6.290;2023-06-22T05:51:42;100945.25;;;25.48;58.69
25232;BME280;13176;51.140;6.290;2023-06-22T05:54:09;100893.09;;;25.18;58.64
25232;BME280;13176;51.140;6.290;2023-06-22T05:56:36;100848.22;;;24.73;58.55
25232;BME280;13176;51.140;6.290;2023-06-22T05:59:14;100856.53;;;24.81;59.24
25232;BME280;13176;51.140;6.290;2023-06-22T06:01:40;100990.88;;;25.58;59.21
25232;BME280;13176;51.140;6.290;2023-06-22T06:04:07;100815.72;;;24.54;58.59
25232;BME280;13176;51.140;6.290;2023-06-22T06:06:47;101004.03;;;25.61;59.51
25232;BME280;13176;51.140;6.290;2023-06-22T06:09:23;100868.91;;;24.82;60.01
25232;BME280;13176;51.140;6.290;2023-06-22T06:11:50;100927.59;;;25.21;60.50
25232;BME280;13176;51.140;6.290;2023-06-22T06:14:16;100796.59;;;24.35;60.66
25232;BME280;13176;51.140;6.290;2023-06-22T06:16:43;100878.97;;;24.66;61.06
25232;BME280;13176;51.140;6.290;2023-06-22T06:19:13;100801.38;;;24.30;60.97
25232;BME280;13176;51.140;6.290;2023-06-22T06:21:39;100871.91;;;24.78;61.02
25232;BME280;13176;51.140;6.290;2023-06-22T06:24:06;100790.06;;;24.39;61.03
25232;BME280;13176;51.140;6.290;2023-06-22T06:26:32;100903.97;;;25.03;61.16
25232;BME280;13176;51.140;6.290;2023-06-22T06:29:03;100890.28;;;24.82;61.78
25232;BME280;13176;51.140;6.290;2023-06-22T06:31:31;100880.47;;;24.70;62.39
25232;BME280;13176;51.140;6.290;2023-06-22T06:34:00;100934.53;;;24.99;62.81
25232;BME280;13176;51.140;6.290;2023-06-22T06:36:27;100819.63;;;24.36;62.78
25232;BME280;13176;51.140;6.290;2023-06-22T06:38:54;100938.19;;;25.10;62.71
25232;BME280;13176;51.140;6.290;2023-06-22T06:41:23;100944.41;;;25.23;62.64
25232;BME280;13176;51.140;6.290;2023-06-22T06:43:49;100914.38;;;25.20;61.82
25232;BME280;13176;51.140;6.290;2023-06-22T06:46:19;100921.97;;;25.26;61.04
25232;BME280;13176;51.140;6.290;2023-06-22T06:48:48;100800.41;;;24.44;60.97
25232;BME280;13176;51.140;6.290;2023-06-22T06:51:17;100775.53;;;24.43;61.24
25232;BME280;13176;51.140;6.290;2023-06-22T06:53:44;100815.50;;;24.57;61.72
25232;BME280;13176;51.140;6.290;2023-06-22T06:56:10;100982.66;;;25.61;61.39
25232;BME280;13176;51.140;6.290;2023-06-22T06:58:42;100869.34;;;25.01;61.06
25232;BME280;13176;51.140;6.290;2023-06-22T07:01:12;100975.34;;;25.75;60.99
25232;BME280;13176;51.140;6.290;2023-06-22T07:03:39;100903.44;;;25.35;61.22
25232;BME280;13176;51.140;6.290;2023-06-22T07:06:06;100875.66;;;25.25;60.68
25232;BME280;13176;51.140;6.290;2023-06-22T07:08:32;100969.91;;;25.77;61.63
25232;BME280;13176;51.140;6.290;2023-06-22T07:11:03;100753.69;;;24.63;62.59
25232;BME280;13176;51.140;6.290;2023-06-22T07:13:31;100887.41;;;25.35;61.29
25232;BME280;13176;51.140;6.290;2023-06-22T07:15:58;100846.47;;;25.22;61.07
25232;BME280;13176;51.140;6.290;2023-06-22T07:18:25;100779.38;;;24.89;61.42
25232;BME280;13176;51.140;6.290;2023-06-22T07:20:52;100845.81;;;25.31;60.92
25232;BME280;13176;51.140;6.290;2023-06-22T07:23:19;100977.69;;;26.05;60.28
25232;BME280;13176;51.140;6.290;2023-06-22T07:26:07;100865.91;;;25.49;60.34
25232;BME280;13176;51.140;6.290;2023-06-22T07:28:37;100879.97;;;25.63;59.88
25232;BME280;13176;51.140;6.290;2023-06-22T07:31:10;100858.47;;;25.65;59.39
25232;BME280;13176;51.140;6.290;2023-06-22T07:33:37;100752.56;;;25.03;60.21
25232;BME280;13176;51.140;6.290;2023-06-22T07:36:05;100760.13;;;25.09;60.98
25232;BME280;13176;51.140;6.290;2023-06-22T07:38:34;100915.38;;;26.03;60.27
25232;BME280;13176;51.140;6.290;2023-06-22T07:41:03;100827.34;;;25.64;61.21
25232;BME280;13176;51.140;6.290;2023-06-22T07:43:32;100714.63;;;24.98;59.84
25232;BME280;13176;51.140;6.290;2023-06-22T07:46:00;100793.16;;;25.56;60.59
25232;BME280;13176;51.140;6.290;2023-06-22T07:48:36;100805.03;;;25.76;59.85
25232;BME280;13176;51.140;6.290;2023-06-22T07:51:06;100712.25;;;25.42;59.49
25232;BME280;13176;51.140;6.290;2023-06-22T07:53:33;100790.59;;;26.02;59.74
25232;BME280;13176;51.140;6.290;2023-06-22T07:56:00;100889.38;;;26.63;59.41
25232;BME280;13176;51.140;6.290;2023-06-22T07:58:26;100788.56;;;26.16;59.24
25232;BME280;13176;51.140;6.290;2023-06-22T08:00:56;100743.38;;;26.01;59.46
25232;BME280;13176;51.140;6.290;2023-06-22T08:03:22;100799.53;;;26.48;60.33
25232;BME280;13176;51.140;6.290;2023-06-22T08:05:49;100883.78;;;27.11;59.32
25232;BME280;13176;51.140;6.290;2023-06-22T08:08:17;100806.72;;;26.58;58.77
25232;BME280;13176;51.140;6.290;2023-06-22T08:10:47;100766.34;;;26.38;57.68
25232;BME280;13176;51.140;6.290;2023-06-22T08:13:14;100698.28;;;26.07;57.70
25232;BME280;13176;51.140;6.290;2023-06-22T08:15:44;100735.25;;;26.48;57.82
25232;BME280;13176;51.140;6.290;2023-06-22T08:18:12;100687.47;;;26.31;57.52
25232;BME280;13176;51.140;6.290;2023-06-22T08:20:39;100834.94;;;27.18;57.30
25232;BME280;13176;51.140;6.290;2023-06-22T08:23:06;100836.47;;;26.99;56.36
25232;BME280;13176;51.140;6.290;2023-06-22T08:25:33;100895.34;;;27.44;56.57
25232;BME280;13176;51.140;6.290;2023-06-22T08:28:03;100755.09;;;26.89;56.76
25232;BME280;13176;51.140;6.290;2023-06-22T08:30:30;100869.03;;;27.60;56.15
25232;BME280;13176;51.140;6.290;2023-06-22T08:32:57;100774.72;;;27.11;56.79
25232;BME280;13176;51.140;6.290;2023-06-22T08:35:23;100822.44;;;27.50;56.37
25232;BME280;13176;51.140;6.290;2023-06-22T08:37:56;100833.38;;;27.80;55.87
25232;BME280;13176;51.140;6.290;2023-06-22T08:40:24;100821.25;;;27.96;55.01
25232;BME280;13176;51.140;6.290;2023-06-22T08:42:51;100831.88;;;27.98;54.03
25232;BME280;13176;51.140;6.290;2023-06-22T08:45:17;100730.78;;;27.45;54.58
25232;BME280;13176;51.140;6.290;2023-06-22T08:47:44;100708.63;;;27.32;54.85
25232;BME280;13176;51.140;6.290;2023-06-22T08:50:14;100642.16;;;27.15;54.38
25232;BME280;13176;51.140;6.290;2023-06-22T08:52:43;100647.69;;;27.34;54.11
25232;BME280;13176;51.140;6.290;2023-06-22T08:55:15;100837.25;;;28.50;55.20
25232;BME280;13176;51.140;6.290;2023-06-22T08:57:41;100850.47;;;28.62;53.35
25232;BME280;13176;51.140;6.290;2023-06-22T09:00:09;100834.09;;;28.65;53.61
25232;BME280;13176;51.140;6.290;2023-06-22T09:02:47;100758.63;;;28.27;53.58
25232;BME280;13176;51.140;6.290;2023-06-22T09:05:14;100769.03;;;28.21;53.88
25232;BME280;13176;51.140;6.290;2023-06-22T09:07:41;100826.75;;;28.67;53.93
25232;BME280;13176;51.140;6.290;2023-06-22T09:10:08;100644.97;;;27.66;54.71
25232;BME280;13176;51.140;6.290;2023-06-22T09:12:41;100691.16;;;28.00;54.13
25232;BME280;13176;51.140;6.290;2023-06-22T09:15:08;100822.56;;;28.95;54.29
25232;BME280;13176;51.140;6.290;2023-06-22T09:17:41;100819.78;;;29.06;53.59
25232;BME280;13176;51.140;6.290;2023-06-22T09:20:09;100734.81;;;28.64;53.48
25232;BME280;13176;51.140;6.290;2023-06-22T09:22:37;100735.66;;;28.64;54.39
25232;BME280;13176;51.140;6.290;2023-06-22T09:25:04;100808.19;;;29.14;54.08
25232;BME280;13176;51.140;6.290;2023-06-22T09:27:33;100800.75;;;29.27;54.29
25232;BME280;13176;51.140;6.290;2023-06-22T09:30:03;100653.56;;;28.51;53.02
25232;BME280;13176;51.140;6.290;2023-06-22T09:32:30;100730.78;;;29.09;52.65
25232;BME280;13176;51.140;6.290;2023-06-22T09:34:57;100705.59;;;29.19;53.47
25232;BME280;13176;51.140;6.290;2023-06-22T09:37:23;100780.34;;;29.64;52.86
25232;BME280;13176;51.140;6.290;2023-06-22T09:39:49;100650.94;;;29.18;52.07
25232;BME280;13176;51.140;6.290;2023-06-22T09:42:16;100598.97;;;28.90;51.64
25232;BME280;13176;51.140;6.290;2023-06-22T09:44:45;100774.53;;;29.97;52.13
25232;BME280;13176;51.140;6.290;2023-06-22T09:47:11;100628.03;;;29.33;50.18
25232;BME280;13176;51.140;6.290;2023-06-22T09:49:40;100752.91;;;29.99;51.33
25232;BME280;13176;51.140;6.290;2023-06-22T09:52:14;100768.06;;;30.09;50.29
25232;BME280;13176;51.140;6.290;2023-06-22T09:54:42;100786.75;;;30.11;50.06
25232;BME280;13176;51.140;6.290;2023-06-22T09:57:11;100766.03;;;29.92;51.70
25232;BME280;13176;51.140;6.290;2023-06-22T09:59:39;100657.03;;;29.20;52.11
25232;BME280;13176;51.140;6.290;2023-06-22T10:02:06;100770.44;;;29.74;52.36
25232;BME280;13176;51.140;6.290;2023-06-22T10:04:34;100793.50;;;29.86;52.35
25232;BME280;13176;51.140;6.290;2023-06-22T10:07:02;100671.03;;;29.05;52.15
25232;BME280;13176;51.140;6.290;2023-06-22T10:09:29;100762.00;;;29.39;52.64
25232;BME280;13176;51.140;6.290;2023-06-22T10:11:55;100679.91;;;28.87;52.50
25232;BME280;13176;51.140;6.290;2023-06-22T10:14:22;100831.84;;;29.50;52.88
25232;BME280;13176;51.140;6.290;2023-06-22T10:16:48;100834.47;;;29.41;53.18
25232;BME280;13176;51.140;6.290;2023-06-22T10:19:15;100851.78;;;29.38;53.70
25232;BME280;13176;51.140;6.290;2023-06-22T10:21:41;100821.38;;;29.17;54.32
25232;BME280;13176;51.140;6.290;2023-06-22T10:24:08;100693.34;;;28.27;54.72
25232;BME280;13176;51.140;6.290;2023-06-22T10:26:35;100836.63;;;29.08;55.59
25232;BME280;13176;51.140;6.290;2023-06-22T10:29:03;100861.00;;;29.15;57.78
25232;BME280;13176;51.140;6.290;2023-06-22T10:31:32;100827.47;;;28.90;58.63
25232;BME280;13176;51.140;6.290;2023-06-22T10:34:00;100852.13;;;28.95;59.74
25232;BME280;13176;51.140;6.290;2023-06-22T10:36:27;100676.91;;;27.80;61.43
25232;BME280;13176;51.140;6.290;2023-06-22T10:38:57;100770.06;;;28.09;63.33
25232;BME280;13176;51.140;6.290;2023-06-22T10:41:26;100739.50;;;27.69;63.82
25232;BME280;13176;51.140;6.290;2023-06-22T10:43:56;100799.03;;;27.94;65.79
25232;BME280;13176;51.140;6.290;2023-06-22T10:46:26;100686.88;;;27.04;66.44
25232;BME280;13176;51.140;6.290;2023-06-22T10:48:56;100865.78;;;27.99;66.96
25232;BME280;13176;51.140;6.290;2023-06-22T10:51:25;100866.78;;;27.87;67.50
25232;BME280;13176;51.140;6.290;2023-06-22T10:53:52;100845.63;;;27.40;69.62
25232;BME280;13176;51.140;6.290;2023-06-22T10:56:18;100874.53;;;27.26;72.94
25232;BME280;13176;51.140;6.290;2023-06-22T10:58:45;100750.75;;;26.32;75.36
25232;BME280;13176;51.140;6.290;2023-06-22T11:01:12;100850.00;;;26.86;75.96
25232;BME280;13176;51.140;6.290;2023-06-22T11:03:59;100698.84;;;25.89;77.68
25232;BME280;13176;51.140;6.290;2023-06-22T11:06:26;100798.94;;;26.32;78.57
25232;BME280;13176;51.140;6.290;2023-06-22T11:08:52;100718.06;;;25.59;81.78
25232;BME280;13176;51.140;6.290;2023-06-22T11:11:37;100823.97;;;25.85;85.78
25232;BME280;13176;51.140;6.290;2023-06-22T11:14:04;100760.28;;;25.31;87.35
25232;BME280;13176;51.140;6.290;2023-06-22T11:16:31;100821.06;;;25.52;90.77
25232;BME280;13176;51.140;6.290;2023-06-22T11:18:57;100687.31;;;24.82;91.84
25232;BME280;13176;51.140;6.290;2023-06-22T11:21:24;100738.31;;;25.03;93.90
25232;BME280;13176;51.140;6.290;2023-06-22T11:23:50;100634.81;;;24.45;93.30
25232;BME280;13176;51.140;6.290;2023-06-22T11:26:17;100634.94;;;24.56;94.51
25232;BME280;13176;51.140;6.290;2023-06-22T11:28:43;100698.22;;;24.92;95.75
25232;BME280;13176;51.140;6.290;2023-06-22T11:31:10;100708.84;;;25.04;97.02
25232;BME280;13176;51.140;6.290;2023-06-22T11:33:51;100723.38;;;25.00;97.32
25232;BME280;13176;51.140;6.290;2023-06-22T11:36:18;100702.03;;;25.00;96.10
25232;BME280;13176;51.140;6.290;2023-06-22T11:38:44;100695.88;;;25.47;94.61
25232;BME280;13176;51.140;6.290;2023-06-22T11:41:11;100746.25;;;25.87;93.30
25232;BME280;13176;51.140;6.290;2023-06-22T11:43:37;100720.56;;;26.08;93.00
25232;BME280;13176;51.140;6.290;2023-06-22T11:46:04;100680.69;;;26.16;92.94
25232;BME280;13176;51.140;6.290;2023-06-22T11:48:31;100617.16;;;26.07;91.46
25232;BME280;13176;51.140;6.290;2023-06-22T11:50:57;100542.22;;;26.07;91.06
25232;BME280;13176;51.140;6.290;2023-06-22T11:53:26;100662.66;;;27.05;90.95
25232;BME280;13176;51.140;6.290;2023-06-22T11:55:53;100616.91;;;26.75;92.81
25232;BME280;13176;51.140;6.290;2023-06-22T11:58:21;100559.19;;;26.71;90.21
25232;BME280;13176;51.140;6.290;2023-06-22T12:00:48;100644.28;;;27.32;86.24
25232;BME280;13176;51.140;6.290;2023-06-22T12:03:18;100648.72;;;27.22;84.85
25232;BME280;13176;51.140;6.290;2023-06-22T12:05:45;100634.59;;;27.20;84.79
25232;BME280;13176;51.140;6.290;2023-06-22T12:08:12;100593.69;;;26.96;83.78
25232;BME280;13176;51.140;6.290;2023-06-22T12:10:42;100591.72;;;26.98;83.58
25232;BME280;13176;51.140;6.290;2023-06-22T12:13:08;100512.38;;;26.55;83.50
25232;BME280;13176;51.140;6.290;2023-06-22T12:15:35;100632.75;;;27.21;83.48
25232;BME280;13176;51.140;6.290;2023-06-22T12:18:01;100496.88;;;26.59;82.34
25232;BME280;13176;51.140;6.290;2023-06-22T12:20:31;100602.44;;;26.98;82.45
25232;BME280;13176;51.140;6.290;2023-06-22T12:22:58;100609.75;;;27.18;83.16
25232;BME280;13176;51.140;6.290;2023-06-22T12:25:27;100680.72;;;27.35;79.88
25232;BME280;13176;51.140;6.290;2023-06-22T12:27:54;100600.63;;;26.57;81.11
25232;BME280;13176;51.140;6.290;2023-06-22T12:30:21;100595.38;;;26.66;82.18
25232;BME280;13176;51.140;6.290;2023-06-22T12:32:53;100585.63;;;26.76;80.27
25232;BME280;13176;51.140;6.290;2023-06-22T12:35:22;100667.59;;;27.52;79.87
25232;BME280;13176;51.140;6.290;2023-06-22T12:37:48;100675.09;;;27.38;79.58
25232;BME280;13176;51.140;6.290;2023-06-22T12:40:19;100625.91;;;26.85;79.84
25232;BME280;13176;51.140;6.290;2023-06-22T12:42:48;100596.22;;;26.67;80.75
25232;BME280;13176;51.140;6.290;2023-06-22T12:45:16;100582.59;;;26.59;79.26
25232;BME280;13176;51.140;6.290;2023-06-22T12:47:42;100636.06;;;27.02;78.71
25232;BME280;13176;51.140;6.290;2023-06-22T12:50:09;100634.34;;;27.01;77.29
25232;BME280;13176;51.140;6.290;2023-06-22T12:52:36;100677.00;;;27.04;79.83
25232;BME280;13176;51.140;6.290;2023-06-22T12:55:06;100671.19;;;26.88;80.46
25232;BME280;13176;51.140;6.290;2023-06-22T12:57:32;100567.28;;;26.17;80.72
25232;BME280;13176;51.140;6.290;2023-06-22T12:59:59;100578.50;;;26.22;82.17
25232;BME280;13176;51.140;6.290;2023-06-22T13:02:27;100568.13;;;26.28;81.70
25232;BME280;13176;51.140;6.290;2023-06-22T13:04:56;100556.81;;;26.36;81.89
25232;BME280;13176;51.140;6.290;2023-06-22T13:07:25;100649.47;;;27.13;80.71